Terminal Aerodrome Forecast
Issued by NWS

Home | Current Version | Previous Version | Text Only | Print | Product List | Glossary On
Versions: 1 2 3 4 5 6 7 8 9 10 11 12 13 14 15 16 17 18 19 20
000
FTUS41 KBGM 062300
TAFITH
TAF
KITH 062332Z 0700/0724 20005KT P6SM BKN250
     FM070800 18005KT P6SM SCT050 BKN100
     FM071300 24008KT P6SM SCT040 BKN080
     FM072000 24008KT 5SM -SHSN OVC035=

USA.gov is the U.S. government's official web portal to all federal, state and local government web resources and services.